sensor_id;sensor_type;location;lat;lon;timestamp;temperature;humidity
25200;DHT22;33094;48.782;9.162;2023-05-29T19:00:15;23.40;70.90
25200;DHT22;33094;48.782;9.162;2023-05-29T19:02:46;23.40;71.00
25200;DHT22;33094;48.782;9.162;2023-05-29T19:05:13;23.30;71.60
25200;DHT22;33094;48.782;9.162;2023-05-29T19:07:39;23.20;71.60
25200;DHT22;33094;48.782;9.162;2023-05-29T19:10:04;23.20;71.60
25200;DHT22;33094;48.782;9.162;2023-05-29T19:12:31;23.10;72.00
25200;DHT22;33094;48.782;9.162;2023-05-29T19:14:56;23.00;72.10
25200;DHT22;33094;48.782;9.162;2023-05-29T19:17:22;22.90;72.00
25200;DHT22;33094;48.782;9.162;2023-05-29T19:19:47;22.80;72.40
25200;DHT22;33094;48.782;9.162;2023-05-29T19:22:13;22.70;72.70
25200;DHT22;33094;48.782;9.162;2023-05-29T19:24:38;22.60;73.00
25200;DHT22;33094;48.782;9.162;2023-05-29T19:27:04;22.50;73.50
25200;DHT22;33094;48.782;9.162;2023-05-29T19:29:32;22.40;73.60
25200;DHT22;33094;48.782;9.162;2023-05-29T19:31:58;22.40;74.10
25200;DHT22;33094;48.782;9.162;2023-05-29T19:34:23;22.30;73.80
25200;DHT22;33094;48.782;9.162;2023-05-29T19:36:49;22.30;74.30
25200;DHT22;33094;48.782;9.162;2023-05-29T19:39:15;22.30;74.50
25200;DHT22;33094;48.782;9.162;2023-05-29T19:41:40;22.20;74.40
25200;DHT22;33094;48.782;9.162;2023-05-29T19:44:07;22.20;74.60
25200;DHT22;33094;48.782;9.162;2023-05-29T19:46:34;22.10;74.40
25200;DHT22;33094;48.782;9.162;2023-05-29T19:49:00;22.10;75.00
25200;DHT22;33094;48.782;9.162;2023-05-29T19:51:25;22.00;74.70
25200;DHT22;33094;48.782;9.162;2023-05-29T19:53:51;22.00;75.50
25200;DHT22;33094;48.782;9.162;2023-05-29T19:56:16;21.90;75.20
25200;DHT22;33094;48.782;9.162;2023-05-29T19:58:42;21.90;75.60
25200;DHT22;33094;48.782;9.162;2023-05-29T20:01:08;21.70;75.80
25200;DHT22;33094;48.782;9.162;2023-05-29T20:03:33;21.70;76.30
25200;DHT22;33094;48.782;9.162;2023-05-29T20:05:59;21.60;76.40
25200;DHT22;33094;48.782;9.162;2023-05-29T20:08:25;21.60;76.70
25200;DHT22;33094;48.782;9.162;2023-05-29T20:10:50;21.60;76.90
25200;DHT22;33094;48.782;9.162;2023-05-29T20:13:16;21.50;77.20
25200;DHT22;33094;48.782;9.162;2023-05-29T20:15:41;21.50;76.80
25200;DHT22;33094;48.782;9.162;2023-05-29T20:18:07;21.40;77.20
25200;DHT22;33094;48.782;9.162;2023-05-29T20:20:32;21.40;77.20
25200;DHT22;33094;48.782;9.162;2023-05-29T20:22:58;21.30;77.90
25200;DHT22;33094;48.782;9.162;2023-05-29T20:25:23;21.20;78.10
25200;DHT22;33094;48.782;9.162;2023-05-29T20:27:51;21.10;78.00
25200;DHT22;33094;48.782;9.162;2023-05-29T20:30:17;21.10;78.20
25200;DHT22;33094;48.782;9.162;2023-05-29T20:32:42;21.10;78.20
25200;DHT22;33094;48.782;9.162;2023-05-29T20:35:08;21.00;78.30
25200;DHT22;33094;48.782;9.162;2023-05-29T20:37:36;20.90;78.90
25200;DHT22;33094;48.782;9.162;2023-05-29T20:40:03;20.90;78.90
25200;DHT22;33094;48.782;9.162;2023-05-29T20:42:29;20.90;78.90
25200;DHT22;33094;48.782;9.162;2023-05-29T20:44:55;20.90;79.10
25200;DHT22;33094;48.782;9.162;2023-05-29T20:47:21;20.90;79.50
25200;DHT22;33094;48.782;9.162;2023-05-29T20:49:46;20.80;79.30
25200;DHT22;33094;48.782;9.162;2023-05-29T20:52:12;20.70;79.30
25200;DHT22;33094;48.782;9.162;2023-05-29T20:54:37;20.70;79.80
25200;DHT22;33094;48.782;9.162;2023-05-29T20:57:03;20.60;80.00
25200;DHT22;33094;48.782;9.162;2023-05-29T20:59:28;20.50;79.60
25200;DHT22;33094;48.782;9.162;2023-05-29T21:01:55;20.50;80.10
25200;DHT22;33094;48.782;9.162;2023-05-29T21:04:21;20.40;80.10
25200;DHT22;33094;48.782;9.162;2023-05-29T21:06:47;20.20;80.00
25200;DHT22;33094;48.782;9.162;2023-05-29T21:09:13;20.20;80.40
25200;DHT22;33094;48.782;9.162;2023-05-29T21:11:38;20.30;80.40
25200;DHT22;33094;48.782;9.162;2023-05-29T21:14:04;20.30;80.10
25200;DHT22;33094;48.782;9.162;2023-05-29T21:16:30;20.30;80.30
25200;DHT22;33094;48.782;9.162;2023-05-29T21:18:55;20.20;80.20
25200;DHT22;33094;48.782;9.162;2023-05-29T21:21:21;20.20;80.70
25200;DHT22;33094;48.782;9.162;2023-05-29T21:23:46;20.10;81.10
25200;DHT22;33094;48.782;9.162;2023-05-29T21:26:12;20.10;81.00
25200;DHT22;33094;48.782;9.162;2023-05-29T21:28:38;20.10;81.10
25200;DHT22;33094;48.782;9.162;2023-05-29T21:31:03;20.00;81.60
25200;DHT22;33094;48.782;9.162;2023-05-29T21:33:29;20.00;81.30
25200;DHT22;33094;48.782;9.162;2023-05-29T21:35:57;19.90;81.90
25200;DHT22;33094;48.782;9.162;2023-05-29T21:38:23;19.90;82.10
25200;DHT22;33094;48.782;9.162;2023-05-29T21:40:48;19.90;81.60
25200;DHT22;33094;48.782;9.162;2023-05-29T21:43:14;19.80;81.50
25200;DHT22;33094;48.782;9.162;2023-05-29T21:45:39;19.80;81.80
25200;DHT22;33094;48.782;9.162;2023-05-29T21:48:05;19.80;82.20
25200;DHT22;33094;48.782;9.162;2023-05-29T21:50:31;19.80;82.80
25200;DHT22;33094;48.782;9.162;2023-05-29T21:52:56;19.70;82.60
25200;DHT22;33094;48.782;9.162;2023-05-29T21:55:22;19.60;82.80
25200;DHT22;33094;48.782;9.162;2023-05-29T21:57:47;19.50;82.70
25200;DHT22;33094;48.782;9.162;2023-05-29T22:00:13;19.40;83.20
25200;DHT22;33094;48.782;9.162;2023-05-29T22:02:38;19.40;83.40
25200;DHT22;33094;48.782;9.162;2023-05-29T22:05:04;19.30;83.60
25200;DHT22;33094;48.782;9.162;2023-05-29T22:07:31;19.30;83.90
25200;DHT22;33094;48.782;9.162;2023-05-29T22:09:57;19.20;83.50
25200;DHT22;33094;48.782;9.162;2023-05-29T22:12:22;19.20;83.70
25200;DHT22;33094;48.782;9.162;2023-05-29T22:14:50;19.30;83.80
25200;DHT22;33094;48.782;9.162;2023-05-29T22:17:16;19.20;83.70
25200;DHT22;33094;48.782;9.162;2023-05-29T22:19:44;19.20;84.00
25200;DHT22;33094;48.782;9.162;2023-05-29T22:22:09;19.20;83.90
25200;DHT22;33094;48.782;9.162;2023-05-29T22:24:35;19.10;84.10
25200;DHT22;33094;48.782;9.162;2023-05-29T22:27:02;19.10;84.60
25200;DHT22;33094;48.782;9.162;2023-05-29T22:29:28;19.10;84.10
25200;DHT22;33094;48.782;9.162;2023-05-29T22:31:56;19.20;83.70
25200;DHT22;33094;48.782;9.162;2023-05-29T22:34:21;19.30;83.20
25200;DHT22;33094;48.782;9.162;2023-05-29T22:36:48;19.30;83.50
25200;DHT22;33094;48.782;9.162;2023-05-29T22:39:17;19.30;83.70
25200;DHT22;33094;48.782;9.162;2023-05-29T22:41:44;19.30;84.20
25200;DHT22;33094;48.782;9.162;2023-05-29T22:44:10;19.30;84.00
25200;DHT22;33094;48.782;9.162;2023-05-29T22:46:35;19.40;84.20
25200;DHT22;33094;48.782;9.162;2023-05-29T22:49:03;19.30;84.00
25200;DHT22;33094;48.782;9.162;2023-05-29T22:51:29;19.40;84.00
25200;DHT22;33094;48.782;9.162;2023-05-29T22:53:57;19.30;84.40
25200;DHT22;33094;48.782;9.162;2023-05-29T22:56:28;19.30;84.00
25200;DHT22;33094;48.782;9.162;2023-05-29T22:58:53;19.30;84.40
25200;DHT22;33094;48.782;9.162;2023-05-29T23:01:19;19.20;84.30
25200;DHT22;33094;48.782;9.162;2023-05-29T23:03:45;19.20;84.60
25200;DHT22;33094;48.782;9.162;2023-05-29T23:06:11;19.10;84.70
25200;DHT22;33094;48.782;9.162;2023-05-29T23:08:37;19.10;84.80
25200;DHT22;33094;48.782;9.162;2023-05-29T23:11:04;19.20;85.20
25200;DHT22;33094;48.782;9.162;2023-05-29T23:13:30;19.00;85.20
25200;DHT22;33094;48.782;9.162;2023-05-29T23:15:55;19.00;85.30
25200;DHT22;33094;48.782;9.162;2023-05-29T23:18:21;19.00;85.70
25200;DHT22;33094;48.782;9.162;2023-05-29T23:20:50;19.00;85.60
25200;DHT22;33094;48.782;9.162;2023-05-29T23:23:16;18.90;85.60
25200;DHT22;33094;48.782;9.162;2023-05-29T23:25:45;18.90;86.00
25200;DHT22;33094;48.782;9.162;2023-05-29T23:28:12;19.00;86.20
25200;DHT22;33094;48.782;9.162;2023-05-29T23:30:38;18.90;86.20
25200;DHT22;33094;48.782;9.162;2023-05-29T23:33:03;18.90;86.40
25200;DHT22;33094;48.782;9.162;2023-05-29T23:35:29;18.90;86.50
25200;DHT22;33094;48.782;9.162;2023-05-29T23:37:54;18.90;86.60
25200;DHT22;33094;48.782;9.162;2023-05-29T23:40:20;18.90;87.00
25200;DHT22;33094;48.782;9.162;2023-05-29T23:42:46;18.80;86.40
25200;DHT22;33094;48.782;9.162;2023-05-29T23:45:11;18.80;86.80
25200;DHT22;33094;48.782;9.162;2023-05-29T23:47:37;18.70;86.90
25200;DHT22;33094;48.782;9.162;2023-05-29T23:50:03;18.70;86.90
25200;DHT22;33094;48.782;9.162;2023-05-29T23:52:29;18.60;87.10
25200;DHT22;33094;48.782;9.162;2023-05-29T23:54:55;18.50;87.50
25200;DHT22;33094;48.782;9.162;2023-05-29T23:57:21;18.40;88.00
25200;DHT22;33094;48.782;9.162;2023-05-29T23:59:47;18.30;88.40
